sensor_id;sensor_type;location;lat;lon;timestamp;pressure;altitude;pressure_sealevel;temperature;humidity
14885;BME280;7534;50.762;7.000;2023-04-26T00:00:23;88677.84;;;-143.16;57.68
14885;BME280;7534;50.762;7.000;2023-04-26T00:02:49;88627.38;;;-143.16;57.60
14885;BME280;7534;50.762;7.000;2023-04-26T00:05:15;88623.31;;;-143.16;57.79
14885;BME280;7534;50.762;7.000;2023-04-26T00:07:42;88673.78;;;-143.16;57.94
14885;BME280;7534;50.762;7.000;2023-04-26T00:10:09;88613.22;;;-143.16;57.97
14885;BME280;7534;50.762;7.000;2023-04-26T00:12:36;88679.84;;;-143.16;58.20
14885;BME280;7534;50.762;7.000;2023-04-26T00:15:03;88607.19;;;-143.16;58.02
14885;BME280;7534;50.762;7.000;2023-04-26T00:17:29;88685.91;;;-143.16;58.27
14885;BME280;7534;50.762;7.000;2023-04-26T00:19:56;88685.91;;;-143.16;58.23
14885;BME280;7534;50.762;7.000;2023-04-26T00:22:23;88665.72;;;-143.16;58.63
14885;BME280;7534;50.762;7.000;2023-04-26T00:24:50;88669.75;;;-143.16;58.57
14885;BME280;7534;50.762;7.000;2023-04-26T00:27:16;88730.31;;;-143.16;58.68
14885;BME280;7534;50.762;7.000;2023-04-26T00:29:42;88641.50;;;-143.16;59.13
14885;BME280;7534;50.762;7.000;2023-04-26T00:32:07;88732.34;;;-143.16;59.47
14885;BME280;7534;50.762;7.000;2023-04-26T00:34:36;88683.91;;;-143.16;59.77
14885;BME280;7534;50.762;7.000;2023-04-26T00:37:04;88683.91;;;-143.16;59.92
14885;BME280;7534;50.762;7.000;2023-04-26T00:39:30;88718.22;;;-143.16;60.17
14885;BME280;7534;50.762;7.000;2023-04-26T00:41:56;88655.63;;;-143.16;60.44
14885;BME280;7534;50.762;7.000;2023-04-26T00:44:22;88706.09;;;-143.16;60.40
14885;BME280;7534;50.762;7.000;2023-04-26T00:46:51;88702.06;;;-143.16;61.09
14885;BME280;7534;50.762;7.000;2023-04-26T00:49:21;88710.13;;;-143.16;61.84
14885;BME280;7534;50.762;7.000;2023-04-26T00:51:47;88710.13;;;-143.16;61.43
14885;BME280;7534;50.762;7.000;2023-04-26T00:54:14;88736.38;;;-143.16;61.71
14885;BME280;7534;50.762;7.000;2023-04-26T00:56:41;88730.31;;;-143.16;61.79
14885;BME280;7534;50.762;7.000;2023-04-26T00:59:08;88724.28;;;-143.16;61.96
14885;BME280;7534;50.762;7.000;2023-04-26T01:01:34;88694.00;;;-143.16;61.23
14885;BME280;7534;50.762;7.000;2023-04-26T01:04:01;88689.94;;;-143.16;61.38
14885;BME280;7534;50.762;7.000;2023-04-26T01:06:34;88758.59;;;-143.16;61.50
14885;BME280;7534;50.762;7.000;2023-04-26T01:09:02;88754.56;;;-143.16;61.35
14885;BME280;7534;50.762;7.000;2023-04-26T01:11:41;88734.38;;;-143.16;61.68
14885;BME280;7534;50.762;7.000;2023-04-26T01:14:09;88704.09;;;-143.16;61.90
14885;BME280;7534;50.762;7.000;2023-04-26T01:16:36;88724.28;;;-143.16;61.86
14885;BME280;7534;50.762;7.000;2023-04-26T01:19:10;88714.19;;;-143.16;62.15
14885;BME280;7534;50.762;7.000;2023-04-26T01:21:38;88708.13;;;-143.16;62.70
14885;BME280;7534;50.762;7.000;2023-04-26T01:24:12;88748.50;;;-143.16;63.02
14885;BME280;7534;50.762;7.000;2023-04-26T01:26:39;88730.31;;;-143.16;63.25
14885;BME280;7534;50.762;7.000;2023-04-26T01:29:18;88718.22;;;-143.16;63.31
14885;BME280;7534;50.762;7.000;2023-04-26T01:31:45;88732.34;;;-143.16;63.34
14885;BME280;7534;50.762;7.000;2023-04-26T01:34:12;88724.28;;;-143.16;63.77
14885;BME280;7534;50.762;7.000;2023-04-26T01:36:38;88685.91;;;-143.16;63.76
14885;BME280;7534;50.762;7.000;2023-04-26T01:39:04;88790.91;;;-143.16;63.97
14885;BME280;7534;50.762;7.000;2023-04-26T01:41:30;88756.56;;;-143.16;64.17
14885;BME280;7534;50.762;7.000;2023-04-26T01:43:56;88720.22;;;-143.16;63.79
14885;BME280;7534;50.762;7.000;2023-04-26T01:46:21;88728.31;;;-143.16;64.05
14885;BME280;7534;50.762;7.000;2023-04-26T01:48:47;88758.59;;;-143.16;63.86
14885;BME280;7534;50.762;7.000;2023-04-26T01:51:13;88732.34;;;-143.16;64.38
14885;BME280;7534;50.762;7.000;2023-04-26T01:53:38;88742.44;;;-143.16;64.76
14885;BME280;7534;50.762;7.000;2023-04-26T01:56:04;88730.31;;;-143.16;64.72
14885;BME280;7534;50.762;7.000;2023-04-26T01:58:30;88877.72;;;-143.16;64.94
14885;BME280;7534;50.762;7.000;2023-04-26T02:01:04;88744.47;;;-143.16;64.82
14885;BME280;7534;50.762;7.000;2023-04-26T02:03:30;88774.75;;;-143.16;65.47
14885;BME280;7534;50.762;7.000;2023-04-26T02:05:55;88752.53;;;-143.16;65.00
14885;BME280;7534;50.762;7.000;2023-04-26T02:08:21;88728.31;;;-143.16;64.92
14885;BME280;7534;50.762;7.000;2023-04-26T02:10:47;88835.31;;;-143.16;64.73
14885;BME280;7534;50.762;7.000;2023-04-26T02:13:14;88750.53;;;-143.16;64.98
14885;BME280;7534;50.762;7.000;2023-04-26T02:15:40;88754.56;;;-143.16;65.09
14885;BME280;7534;50.762;7.000;2023-04-26T02:18:06;88760.63;;;-143.16;65.24
14885;BME280;7534;50.762;7.000;2023-04-26T02:20:32;88764.66;;;-143.16;64.69
14885;BME280;7534;50.762;7.000;2023-04-26T02:22:58;88754.56;;;-143.16;64.93
14885;BME280;7534;50.762;7.000;2023-04-26T02:25:24;88724.28;;;-143.16;64.90
14885;BME280;7534;50.762;7.000;2023-04-26T02:27:49;88885.78;;;-143.16;64.73
14885;BME280;7534;50.762;7.000;2023-04-26T02:30:16;88752.53;;;-143.16;64.87
14885;BME280;7534;50.762;7.000;2023-04-26T02:32:42;88788.88;;;-143.16;65.20
14885;BME280;7534;50.762;7.000;2023-04-26T02:35:08;88754.56;;;-143.16;65.60
14885;BME280;7534;50.762;7.000;2023-04-26T02:37:33;88758.59;;;-143.16;65.28
14885;BME280;7534;50.762;7.000;2023-04-26T02:39:59;88778.78;;;-143.16;66.26
14885;BME280;7534;50.762;7.000;2023-04-26T02:42:25;88803.00;;;-143.16;65.89
14885;BME280;7534;50.762;7.000;2023-04-26T02:44:51;88790.91;;;-143.16;66.13
14885;BME280;7534;50.762;7.000;2023-04-26T02:47:16;88756.56;;;-143.16;66.18
14885;BME280;7534;50.762;7.000;2023-04-26T02:49:42;88766.66;;;-143.16;66.37
14885;BME280;7534;50.762;7.000;2023-04-26T02:52:08;88774.75;;;-143.16;66.45
14885;BME280;7534;50.762;7.000;2023-04-26T02:54:33;88790.91;;;-143.16;66.80
14885;BME280;7534;50.762;7.000;2023-04-26T02:56:59;88853.50;;;-143.16;66.77
14885;BME280;7534;50.762;7.000;2023-04-26T02:59:25;88772.72;;;-143.16;67.10
14885;BME280;7534;50.762;7.000;2023-04-26T03:01:52;88803.00;;;-143.16;66.90
14885;BME280;7534;50.762;7.000;2023-04-26T03:04:17;88803.00;;;-143.16;66.91
14885;BME280;7534;50.762;7.000;2023-04-26T03:06:43;88754.56;;;-143.16;67.11
14885;BME280;7534;50.762;7.000;2023-04-26T03:09:09;88861.56;;;-143.16;66.93
14885;BME280;7534;50.762;7.000;2023-04-26T03:11:35;88732.34;;;-143.16;67.26
14885;BME280;7534;50.762;7.000;2023-04-26T03:14:00;88764.66;;;-143.16;67.27
14885;BME280;7534;50.762;7.000;2023-04-26T03:16:27;88766.66;;;-143.16;66.79
14885;BME280;7534;50.762;7.000;2023-04-26T03:18:53;88774.75;;;-143.16;66.45
14885;BME280;7534;50.762;7.000;2023-04-26T03:21:19;88746.47;;;-143.16;66.53
14885;BME280;7534;50.762;7.000;2023-04-26T03:23:45;88764.66;;;-143.16;66.47
14885;BME280;7534;50.762;7.000;2023-04-26T03:26:11;88813.09;;;-143.16;66.51
14885;BME280;7534;50.762;7.000;2023-04-26T03:28:37;88732.34;;;-143.16;66.23
14885;BME280;7534;50.762;7.000;2023-04-26T03:31:03;88841.38;;;-143.16;66.00
14885;BME280;7534;50.762;7.000;2023-04-26T03:33:30;88770.72;;;-143.16;66.17
14885;BME280;7534;50.762;7.000;2023-04-26T03:35:56;88782.81;;;-143.16;66.25
14885;BME280;7534;50.762;7.000;2023-04-26T03:38:22;88774.75;;;-143.16;66.48
14885;BME280;7534;50.762;7.000;2023-04-26T03:40:48;88758.59;;;-143.16;66.59
14885;BME280;7534;50.762;7.000;2023-04-26T03:43:13;88809.06;;;-143.16;66.87
14885;BME280;7534;50.762;7.000;2023-04-26T03:45:39;88792.91;;;-143.16;66.57
14885;BME280;7534;50.762;7.000;2023-04-26T03:48:05;88788.88;;;-143.16;66.60
14885;BME280;7534;50.762;7.000;2023-04-26T03:50:31;88768.69;;;-143.16;66.76
14885;BME280;7534;50.762;7.000;2023-04-26T03:52:57;88782.81;;;-143.16;66.72
14885;BME280;7534;50.762;7.000;2023-04-26T03:55:22;88776.75;;;-143.16;66.96
14885;BME280;7534;50.762;7.000;2023-04-26T03:57:48;88778.78;;;-143.16;67.28
14885;BME280;7534;50.762;7.000;2023-04-26T04:00:14;88770.72;;;-143.16;67.10
14885;BME280;7534;50.762;7.000;2023-04-26T04:02:41;88764.66;;;-143.16;67.22
14885;BME280;7534;50.762;7.000;2023-04-26T04:05:07;88827.25;;;-143.16;67.07
14885;BME280;7534;50.762;7.000;2023-04-26T04:07:34;88782.81;;;-143.16;67.10
14885;BME280;7534;50.762;7.000;2023-04-26T04:10:00;88784.84;;;-143.16;66.72
14885;BME280;7534;50.762;7.000;2023-04-26T04:12:25;88815.13;;;-143.16;66.13
14885;BME280;7534;50.762;7.000;2023-04-26T04:14:51;88750.53;;;-143.16;65.87
14885;BME280;7534;50.762;7.000;2023-04-26T04:17:18;88740.44;;;-143.16;66.18
14885;BME280;7534;50.762;7.000;2023-04-26T04:19:43;88760.63;;;-143.16;66.26
14885;BME280;7534;50.762;7.000;2023-04-26T04:22:10;88740.44;;;-143.16;66.27
14885;BME280;7534;50.762;7.000;2023-04-26T04:24:36;88716.19;;;-143.16;66.61
14885;BME280;7534;50.762;7.000;2023-04-26T04:27:02;88813.09;;;-143.16;67.06
14885;BME280;7534;50.762;7.000;2023-04-26T04:29:28;88732.34;;;-143.16;66.87
14885;BME280;7534;50.762;7.000;2023-04-26T04:31:54;88758.59;;;-143.16;67.41
14885;BME280;7534;50.762;7.000;2023-04-26T04:34:20;88738.41;;;-143.16;67.00
14885;BME280;7534;50.762;7.000;2023-04-26T04:36:48;88728.31;;;-143.16;66.43
14885;BME280;7534;50.762;7.000;2023-04-26T04:39:15;88681.88;;;-143.16;66.48
14885;BME280;7534;50.762;7.000;2023-04-26T04:41:42;88706.09;;;-143.16;66.08
14885;BME280;7534;50.762;7.000;2023-04-26T04:44:17;88718.22;;;-143.16;65.44
14885;BME280;7534;50.762;7.000;2023-04-26T04:46:43;88762.63;;;-143.16;64.56
14885;BME280;7534;50.762;7.000;2023-04-26T04:49:11;88696.00;;;-143.16;64.11
14885;BME280;7534;50.762;7.000;2023-04-26T04:51:37;88665.72;;;-143.16;63.55
14885;BME280;7534;50.762;7.000;2023-04-26T04:54:15;88661.69;;;-143.16;62.65
14885;BME280;7534;50.762;7.000;2023-04-26T04:56:41;88643.50;;;-143.16;61.98
14885;BME280;7534;50.762;7.000;2023-04-26T04:59:07;88613.22;;;-143.16;61.34
14885;BME280;7534;50.762;7.000;2023-04-26T05:01:34;88631.41;;;-143.16;60.64
14885;BME280;7534;50.762;7.000;2023-04-26T05:04:02;88633.41;;;-143.16;60.26
14885;BME280;7534;50.762;7.000;2023-04-26T05:06:29;88681.88;;;-143.16;59.58
14885;BME280;7534;50.762;7.000;2023-04-26T05:08:56;88645.53;;;-143.16;58.92
14885;BME280;7534;50.762;7.000;2023-04-26T05:11:22;88633.41;;;-143.16;58.41
14885;BME280;7534;50.762;7.000;2023-04-26T05:13:48;88556.69;;;-143.16;58.25
14885;BME280;7534;50.762;7.000;2023-04-26T05:16:14;88591.03;;;-143.16;58.60
14885;BME280;7534;50.762;7.000;2023-04-26T05:18:41;88554.69;;;-143.16;58.19
14885;BME280;7534;50.762;7.000;2023-04-26T05:21:06;88558.72;;;-143.16;57.23
14885;BME280;7534;50.762;7.000;2023-04-26T05:23:32;88586.97;;;-143.16;57.00
14885;BME280;7534;50.762;7.000;2023-04-26T05:26:04;88576.88;;;-143.16;57.03
14885;BME280;7534;50.762;7.000;2023-04-26T05:28:31;88526.41;;;-143.16;56.59
14885;BME280;7534;50.762;7.000;2023-04-26T05:30:57;88514.31;;;-143.16;56.11
14885;BME280;7534;50.762;7.000;2023-04-26T05:33:23;88554.69;;;-143.16;55.51
14885;BME280;7534;50.762;7.000;2023-04-26T05:35:49;88528.44;;;-143.16;55.28
14885;BME280;7534;50.762;7.000;2023-04-26T05:38:15;88506.22;;;-143.16;54.76
14885;BME280;7534;50.762;7.000;2023-04-26T05:40:41;88518.34;;;-143.16;55.17
14885;BME280;7534;50.762;7.000;2023-04-26T05:43:07;88492.09;;;-143.16;55.38
14885;BME280;7534;50.762;7.000;2023-04-26T05:45:33;88514.31;;;-143.16;55.54
14885;BME280;7534;50.762;7.000;2023-04-26T05:47:58;88514.31;;;-143.16;55.21
14885;BME280;7534;50.762;7.000;2023-04-26T05:50:25;88473.94;;;-143.16;55.00
14885;BME280;7534;50.762;7.000;2023-04-26T05:52:50;88465.84;;;-143.16;54.31
14885;BME280;7534;50.762;7.000;2023-04-26T05:55:16;88451.72;;;-143.16;53.55
14885;BME280;7534;50.762;7.000;2023-04-26T05:57:42;88435.56;;;-143.16;53.36
14885;BME280;7534;50.762;7.000;2023-04-26T06:00:08;88391.16;;;-143.16;52.78
14885;BME280;7534;50.762;7.000;2023-04-26T06:02:34;88387.13;;;-143.16;52.18
14885;BME280;7534;50.762;7.000;2023-04-26T06:05:02;88336.66;;;-143.16;51.46
14885;BME280;7534;50.762;7.000;2023-04-26T06:07:29;88308.38;;;-143.16;50.76
14885;BME280;7534;50.762;7.000;2023-04-26T06:09:55;88391.16;;;-143.16;50.68
14885;BME280;7534;50.762;7.000;2023-04-26T06:12:20;88288.19;;;-143.16;50.11
14885;BME280;7534;50.762;7.000;2023-04-26T06:14:46;88290.22;;;-143.16;49.48
14885;BME280;7534;50.762;7.000;2023-04-26T06:17:12;88314.44;;;-143.16;47.97
14885;BME280;7534;50.762;7.000;2023-04-26T06:19:37;88282.16;;;-143.16;48.17
14885;BME280;7534;50.762;7.000;2023-04-26T06:22:04;88284.16;;;-143.16;47.95
14885;BME280;7534;50.762;7.000;2023-04-26T06:24:29;88237.72;;;-143.16;47.34
14885;BME280;7534;50.762;7.000;2023-04-26T06:26:55;88237.72;;;-143.16;46.96
14885;BME280;7534;50.762;7.000;2023-04-26T06:29:21;88221.59;;;-143.16;46.25
14885;BME280;7534;50.762;7.000;2023-04-26T06:31:47;88181.22;;;-143.16;45.94
14885;BME280;7534;50.762;7.000;2023-04-26T06:34:12;88052.00;;;-143.16;44.09
14885;BME280;7534;50.762;7.000;2023-04-26T06:36:38;87943.00;;;-143.16;41.76
14885;BME280;7534;50.762;7.000;2023-04-26T06:39:03;87898.59;;;-143.16;40.82
14885;BME280;7534;50.762;7.000;2023-04-26T06:41:29;87890.53;;;-143.16;39.38
14885;BME280;7534;50.762;7.000;2023-04-26T06:43:55;87852.19;;;-143.16;38.79
14885;BME280;7534;50.762;7.000;2023-04-26T06:46:21;87886.50;;;-143.16;38.77
14885;BME280;7534;50.762;7.000;2023-04-26T06:48:47;87858.25;;;-143.16;38.16
14885;BME280;7534;50.762;7.000;2023-04-26T06:51:12;87829.97;;;-143.16;38.06
14885;BME280;7534;50.762;7.000;2023-04-26T06:53:38;87829.97;;;-143.16;37.81
14885;BME280;7534;50.762;7.000;2023-04-26T06:56:04;87795.66;;;-143.16;38.00
14885;BME280;7534;50.762;7.000;2023-04-26T06:58:32;87692.72;;;-143.16;36.99
14885;BME280;7534;50.762;7.000;2023-04-26T07:00:58;87616.03;;;-143.16;36.20
14885;BME280;7534;50.762;7.000;2023-04-26T07:03:24;87377.88;;;-143.16;33.91
14885;BME280;7534;50.762;7.000;2023-04-26T07:05:51;87220.47;;;-143.16;32.29
14885;BME280;7534;50.762;7.000;2023-04-26T07:08:17;86974.25;;;-143.16;30.31
14885;BME280;7534;50.762;7.000;2023-04-26T07:10:43;86824.94;;;-143.16;28.79
14885;BME280;7534;50.762;7.000;2023-04-26T07:13:09;86822.91;;;-143.16;27.82
14885;BME280;7534;50.762;7.000;2023-04-26T07:15:35;86794.66;;;-143.16;28.08
14885;BME280;7534;50.762;7.000;2023-04-26T07:18:01;86837.03;;;-143.16;28.07
14885;BME280;7534;50.762;7.000;2023-04-26T07:20:27;86792.66;;;-143.16;28.09
14885;BME280;7534;50.762;7.000;2023-04-26T07:22:53;86760.38;;;-143.16;27.84
14885;BME280;7534;50.762;7.000;2023-04-26T07:25:19;86784.56;;;-143.16;27.74
14885;BME280;7534;50.762;7.000;2023-04-26T07:27:45;86738.16;;;-143.16;27.84
14885;BME280;7534;50.762;7.000;2023-04-26T07:30:12;86788.63;;;-143.16;27.97
14885;BME280;7534;50.762;7.000;2023-04-26T07:32:38;86873.38;;;-143.16;28.32
14885;BME280;7534;50.762;7.000;2023-04-26T07:35:05;86895.56;;;-143.16;28.59
14885;BME280;7534;50.762;7.000;2023-04-26T07:37:42;86933.91;;;-143.16;29.08
14885;BME280;7534;50.762;7.000;2023-04-26T07:40:10;86954.09;;;-143.16;29.04
14885;BME280;7534;50.762;7.000;2023-04-26T07:42:38;87026.72;;;-143.16;28.57
14885;BME280;7534;50.762;7.000;2023-04-26T07:45:04;86990.41;;;-143.16;28.84
14885;BME280;7534;50.762;7.000;2023-04-26T07:47:30;86903.63;;;-143.16;27.95
14885;BME280;7534;50.762;7.000;2023-04-26T07:49:55;86881.44;;;-143.16;27.75
14885;BME280;7534;50.762;7.000;2023-04-26T07:52:22;86881.44;;;-143.16;27.71
14885;BME280;7534;50.762;7.000;2023-04-26T07:54:47;86950.03;;;-143.16;28.06
14885;BME280;7534;50.762;7.000;2023-04-26T07:57:13;87050.94;;;-143.16;28.37
14885;BME280;7534;50.762;7.000;2023-04-26T07:59:39;87115.53;;;-143.16;29.23
14885;BME280;7534;50.762;7.000;2023-04-26T08:02:05;87109.47;;;-143.16;28.58
14885;BME280;7534;50.762;7.000;2023-04-26T08:04:32;87137.72;;;-143.16;28.10
14885;BME280;7534;50.762;7.000;2023-04-26T08:06:59;87141.75;;;-143.16;28.51
14885;BME280;7534;50.762;7.000;2023-04-26T08:09:27;87234.59;;;-143.16;29.29
14885;BME280;7534;50.762;7.000;2023-04-26T08:11:53;87307.25;;;-143.16;30.67
14885;BME280;7534;50.762;7.000;2023-04-26T08:14:19;87359.72;;;-143.16;31.29
14885;BME280;7534;50.762;7.000;2023-04-26T08:16:45;87238.63;;;-143.16;30.37
14885;BME280;7534;50.762;7.000;2023-04-26T08:19:11;87161.94;;;-143.16;29.66
14885;BME280;7534;50.762;7.000;2023-04-26T08:21:36;86877.41;;;-143.16;28.20
14885;BME280;7534;50.762;7.000;2023-04-26T08:24:02;86572.72;;;-143.16;26.33
14885;BME280;7534;50.762;7.000;2023-04-26T08:26:28;86387.09;;;-143.16;25.21
14885;BME280;7534;50.762;7.000;2023-04-26T08:28:54;86249.88;;;-143.16;24.70
14885;BME280;7534;50.762;7.000;2023-04-26T08:31:19;86284.19;;;-143.16;24.17
14885;BME280;7534;50.762;7.000;2023-04-26T08:33:47;86417.34;;;-143.16;24.57
14885;BME280;7534;50.762;7.000;2023-04-26T08:36:13;86635.25;;;-143.16;24.99
14885;BME280;7534;50.762;7.000;2023-04-26T08:38:38;86752.28;;;-143.16;26.06
14885;BME280;7534;50.762;7.000;2023-04-26T08:41:08;86800.72;;;-143.16;25.91
14885;BME280;7534;50.762;7.000;2023-04-26T08:43:37;86724.03;;;-143.16;25.77
14885;BME280;7534;50.762;7.000;2023-04-26T08:46:08;86530.34;;;-143.16;24.80
14885;BME280;7534;50.762;7.000;2023-04-26T08:48:36;86554.56;;;-143.16;24.80
14885;BME280;7534;50.762;7.000;2023-04-26T08:51:03;86598.94;;;-143.16;25.15
14885;BME280;7534;50.762;7.000;2023-04-26T08:53:34;86659.47;;;-143.16;25.54
14885;BME280;7534;50.762;7.000;2023-04-26T08:56:01;86760.38;;;-143.16;25.27
14885;BME280;7534;50.762;7.000;2023-04-26T08:58:29;86913.72;;;-143.16;25.38
14885;BME280;7534;50.762;7.000;2023-04-26T09:00:55;86986.38;;;-143.16;26.12
14885;BME280;7534;50.762;7.000;2023-04-26T09:03:22;87131.66;;;-143.16;26.13
14885;BME280;7534;50.762;7.000;2023-04-26T09:05:48;87069.09;;;-143.16;26.34
14885;BME280;7534;50.762;7.000;2023-04-26T09:08:18;87069.09;;;-143.16;26.46
14885;BME280;7534;50.762;7.000;2023-04-26T09:10:44;87059.00;;;-143.16;26.67
14885;BME280;7534;50.762;7.000;2023-04-26T09:13:09;87113.50;;;-143.16;26.87
14885;BME280;7534;50.762;7.000;2023-04-26T09:15:36;87143.78;;;-143.16;26.75
14885;BME280;7534;50.762;7.000;2023-04-26T09:18:22;87095.34;;;-143.16;26.65
14885;BME280;7534;50.762;7.000;2023-04-26T09:21:06;87042.88;;;-143.16;25.97
14885;BME280;7534;50.762;7.000;2023-04-26T09:23:32;87018.66;;;-143.16;26.48
14885;BME280;7534;50.762;7.000;2023-04-26T09:26:18;87083.22;;;-143.16;26.88
14885;BME280;7534;50.762;7.000;2023-04-26T09:28:44;87018.66;;;-143.16;27.07
14885;BME280;7534;50.762;7.000;2023-04-26T09:31:11;87165.97;;;-143.16;26.63
14885;BME280;7534;50.762;7.000;2023-04-26T09:33:57;87196.25;;;-143.16;27.19
14885;BME280;7534;50.762;7.000;2023-04-26T09:36:24;87248.72;;;-143.16;27.48
14885;BME280;7534;50.762;7.000;2023-04-26T09:38:50;87268.91;;;-143.16;27.77
14885;BME280;7534;50.762;7.000;2023-04-26T09:41:16;87276.97;;;-143.16;28.22
14885;BME280;7534;50.762;7.000;2023-04-26T09:43:41;87222.47;;;-143.16;27.34
14885;BME280;7534;50.762;7.000;2023-04-26T09:46:07;87153.88;;;-143.16;27.02
14885;BME280;7534;50.762;7.000;2023-04-26T09:48:34;87196.25;;;-143.16;27.49
14885;BME280;7534;50.762;7.000;2023-04-26T09:53:48;87260.81;;;-143.16;27.76
14885;BME280;7534;50.762;7.000;2023-04-26T09:56:19;87272.94;;;-143.16;27.02
14885;BME280;7534;50.762;7.000;2023-04-26T10:01:14;87309.25;;;-143.16;28.31
14885;BME280;7534;50.762;7.000;2023-04-26T10:03:43;87301.19;;;-143.16;27.78
14885;BME280;7534;50.762;7.000;2023-04-26T10:06:09;87274.94;;;-143.16;27.28
14885;BME280;7534;50.762;7.000;2023-04-26T10:08:35;87293.13;;;-143.16;26.35
14885;BME280;7534;50.762;7.000;2023-04-26T10:11:05;87311.28;;;-143.16;27.46
14885;BME280;7534;50.762;7.000;2023-04-26T10:13:33;87345.59;;;-143.16;27.65
14885;BME280;7534;50.762;7.000;2023-04-26T10:16:00;87414.19;;;-143.16;27.78
14885;BME280;7534;50.762;7.000;2023-04-26T10:18:27;87303.22;;;-143.16;27.19
14885;BME280;7534;50.762;7.000;2023-04-26T10:20:57;87385.94;;;-143.16;27.92
14885;BME280;7534;50.762;7.000;2023-04-26T10:23:25;87351.63;;;-143.16;28.54
14885;BME280;7534;50.762;7.000;2023-04-26T10:25:52;87440.44;;;-143.16;27.62
14885;BME280;7534;50.762;7.000;2023-04-26T10:31:04;87434.38;;;-143.16;28.28
14885;BME280;7534;50.762;7.000;2023-04-26T10:33:31;87426.31;;;-143.16;27.80
14885;BME280;7534;50.762;7.000;2023-04-26T10:36:09;87272.94;;;-143.16;26.87
14885;BME280;7534;50.762;7.000;2023-04-26T10:38:40;87226.50;;;-143.16;26.93
14885;BME280;7534;50.762;7.000;2023-04-26T10:41:34;87139.75;;;-143.16;26.41
14885;BME280;7534;50.762;7.000;2023-04-26T10:44:38;87131.66;;;-143.16;25.98
14885;BME280;7534;50.762;7.000;2023-04-26T10:47:33;87145.78;;;-143.16;26.26
14885;BME280;7534;50.762;7.000;2023-04-26T10:50:04;87119.56;;;-143.16;26.46
14885;BME280;7534;50.762;7.000;2023-04-26T10:52:30;87087.25;;;-143.16;25.52
14885;BME280;7534;50.762;7.000;2023-04-26T10:54:57;86982.34;;;-143.16;26.19
14885;BME280;7534;50.762;7.000;2023-04-26T10:57:47;86970.22;;;-143.16;25.00
14885;BME280;7534;50.762;7.000;2023-04-26T11:03:03;87198.25;;;-143.16;25.43
14885;BME280;7534;50.762;7.000;2023-04-26T11:05:51;87256.78;;;-143.16;26.88
14885;BME280;7534;50.762;7.000;2023-04-26T11:08:22;87232.56;;;-143.16;27.65
14885;BME280;7534;50.762;7.000;2023-04-26T11:10:56;87186.16;;;-143.16;27.34
14885;BME280;7534;50.762;7.000;2023-04-26T11:13:22;87262.84;;;-143.16;27.25
14885;BME280;7534;50.762;7.000;2023-04-26T11:15:53;87256.78;;;-143.16;28.10
14885;BME280;7534;50.762;7.000;2023-04-26T11:18:24;87274.94;;;-143.16;27.52
14885;BME280;7534;50.762;7.000;2023-04-26T11:20:50;87274.94;;;-143.16;26.48
14885;BME280;7534;50.762;7.000;2023-04-26T11:23:17;87297.16;;;-143.16;26.45
14885;BME280;7534;50.762;7.000;2023-04-26T11:25:45;87204.31;;;-143.16;27.23
14885;BME280;7534;50.762;7.000;2023-04-26T11:28:11;87176.06;;;-143.16;25.86
14885;BME280;7534;50.762;7.000;2023-04-26T11:30:36;87075.16;;;-143.16;25.63
14885;BME280;7534;50.762;7.000;2023-04-26T11:33:03;87113.50;;;-143.16;25.03
14885;BME280;7534;50.762;7.000;2023-04-26T11:35:35;87131.66;;;-143.16;26.30
14885;BME280;7534;50.762;7.000;2023-04-26T11:38:04;87069.09;;;-143.16;26.15
14885;BME280;7534;50.762;7.000;2023-04-26T11:40:33;87196.25;;;-143.16;25.55
14885;BME280;7534;50.762;7.000;2023-04-26T11:43:05;87234.59;;;-143.16;26.29
14885;BME280;7534;50.762;7.000;2023-04-26T11:45:33;87226.50;;;-143.16;25.86
14885;BME280;7534;50.762;7.000;2023-04-26T11:48:02;87198.25;;;-143.16;26.20
14885;BME280;7534;50.762;7.000;2023-04-26T11:50:31;87262.84;;;-143.16;24.67
14885;BME280;7534;50.762;7.000;2023-04-26T11:53:00;87270.91;;;-143.16;24.98
14885;BME280;7534;50.762;7.000;2023-04-26T11:55:32;87307.25;;;-143.16;26.60
14885;BME280;7534;50.762;7.000;2023-04-26T11:58:01;87359.72;;;-143.16;26.10
14885;BME280;7534;50.762;7.000;2023-04-26T12:00:34;87276.97;;;-143.16;26.27
14885;BME280;7534;50.762;7.000;2023-04-26T12:03:06;87204.31;;;-143.16;25.88
14885;BME280;7534;50.762;7.000;2023-04-26T12:05:36;87266.88;;;-143.16;26.01
14885;BME280;7534;50.762;7.000;2023-04-26T12:08:02;87252.75;;;-143.16;26.56
14885;BME280;7534;50.762;7.000;2023-04-26T12:10:35;87244.69;;;-143.16;25.19
14885;BME280;7534;50.762;7.000;2023-04-26T12:13:01;87214.41;;;-143.16;26.24
14885;BME280;7534;50.762;7.000;2023-04-26T12:15:31;87274.94;;;-143.16;25.82
14885;BME280;7534;50.762;7.000;2023-04-26T12:18:05;87230.56;;;-143.16;25.43
14885;BME280;7534;50.762;7.000;2023-04-26T12:20:33;87232.56;;;-143.16;26.33
14885;BME280;7534;50.762;7.000;2023-04-26T12:25:32;87365.75;;;-143.16;26.26
14885;BME280;7534;50.762;7.000;2023-04-26T12:28:00;87406.13;;;-143.16;26.44
14885;BME280;7534;50.762;7.000;2023-04-26T12:30:27;87385.94;;;-143.16;26.91
14885;BME280;7534;50.762;7.000;2023-04-26T12:32:53;87353.66;;;-143.16;28.35
14885;BME280;7534;50.762;7.000;2023-04-26T12:35:22;87264.84;;;-143.16;26.70
14885;BME280;7534;50.762;7.000;2023-04-26T12:37:48;87264.84;;;-143.16;27.00
14885;BME280;7534;50.762;7.000;2023-04-26T12:40:15;87172.03;;;-143.16;25.97
14885;BME280;7534;50.762;7.000;2023-04-26T12:42:41;87131.66;;;-143.16;25.15
14885;BME280;7534;50.762;7.000;2023-04-26T12:45:07;87151.84;;;-143.16;25.13
14885;BME280;7534;50.762;7.000;2023-04-26T12:47:33;87248.72;;;-143.16;25.55
14885;BME280;7534;50.762;7.000;2023-04-26T12:49:59;87220.47;;;-143.16;25.89
14885;BME280;7534;50.762;7.000;2023-04-26T12:52:27;87272.94;;;-143.16;26.28
14885;BME280;7534;50.762;7.000;2023-04-26T12:54:52;87230.56;;;-143.16;26.74
14885;BME280;7534;50.762;7.000;2023-04-26T12:57:19;87240.63;;;-143.16;26.44
14885;BME280;7534;50.762;7.000;2023-04-26T12:59:47;87182.13;;;-143.16;25.96
14885;BME280;7534;50.762;7.000;2023-04-26T13:02:12;87184.13;;;-143.16;26.26
14885;BME280;7534;50.762;7.000;2023-04-26T13:04:39;87206.34;;;-143.16;26.02